KLM941 EHAM-EGPF
Flight info
| Callsign | KLM941 |
|---|---|
| Flight time | 1h 6m |
| Altitude | 38000 |
| Route | BERGI L602 SUPUR P1 GODOS DCT ROXAT DCT BAZNA DCT ANMAZ DCT AGPED |
| Aircraft | B738/M-SABDFGRVYL/LB2 |
Departure
| Time | 2026-05-07 09:46 |
|---|---|
| Airport | Amsterdam Airport Schiphol (EHAM) |
Arrival
| Time | 2026-05-07 10:52 |
|---|---|
| Airport | Glasgow Airport (EGPF) |
| Time | Latitude | Longitude | Altitude | Speed | Heading |
|---|---|---|---|---|---|
| 2026-05-07 09:14 | 52.30892 | 4.77236 | 12 ft | 0 kts | 2° |
| 2026-05-07 09:34 | 52.30878 | 4.77235 | 12 ft | 2 kts | 2° |
| 2026-05-07 09:34 | 52.30864 | 4.77234 | 12 ft | 2 kts | 2° |
| 2026-05-07 09:35 | 52.30850 | 4.77228 | 12 ft | 2 kts | 47° |
| 2026-05-07 09:35 | 52.30844 | 4.77209 | 12 ft | 0 kts | 89° |
| 2026-05-07 09:35 | 52.30844 | 4.77199 | 12 ft | 1 kts | 96° |
| 2026-05-07 09:35 | 52.30844 | 4.77196 | 12 ft | 0 kts | 94° |
| 2026-05-07 09:37 | 52.30843 | 4.77227 | 12 ft | 8 kts | 94° |
| 2026-05-07 09:38 | 52.30838 | 4.77361 | 11 ft | 12 kts | 93° |
| 2026-05-07 09:38 | 52.30789 | 4.77465 | 9 ft | 17 kts | 179° |
| 2026-05-07 09:38 | 52.30670 | 4.77453 | 8 ft | 9 kts | 193° |
| 2026-05-07 09:38 | 52.30661 | 4.77448 | 8 ft | 1 kts | 202° |
| 2026-05-07 09:39 | 52.30616 | 4.77360 | 7 ft | 15 kts | 238° |
| 2026-05-07 09:39 | 52.30556 | 4.77201 | 6 ft | 18 kts | 238° |
| 2026-05-07 09:39 | 52.30474 | 4.76988 | 1 ft | 23 kts | 238° |
| 2026-05-07 09:39 | 52.30386 | 4.76759 | 0 ft | 23 kts | 237° |
| 2026-05-07 09:40 | 52.30297 | 4.76526 | -1 ft | 24 kts | 238° |
| 2026-05-07 09:40 | 52.30212 | 4.76303 | 0 ft | 22 kts | 238° |
| 2026-05-07 09:40 | 52.30127 | 4.76086 | 0 ft | 22 kts | 237° |
| 2026-05-07 09:40 | 52.30049 | 4.75877 | 0 ft | 21 kts | 239° |
| 2026-05-07 09:41 | 52.29968 | 4.75668 | -1 ft | 21 kts | 238° |
| 2026-05-07 09:41 | 52.29892 | 4.75468 | 0 ft | 20 kts | 238° |
| 2026-05-07 09:41 | 52.29831 | 4.75262 | 0 ft | 19 kts | 272° |
| 2026-05-07 09:41 | 52.29898 | 4.75088 | 2 ft | 17 kts | 311° |
| 2026-05-07 09:42 | 52.29977 | 4.74941 | 1 ft | 17 kts | 311° |
| 2026-05-07 09:42 | 52.30059 | 4.74791 | 0 ft | 17 kts | 311° |
| 2026-05-07 09:42 | 52.30146 | 4.74630 | -4 ft | 20 kts | 311° |
| 2026-05-07 09:42 | 52.30241 | 4.74453 | -8 ft | 21 kts | 313° |
| 2026-05-07 09:43 | 52.30336 | 4.74261 | -12 ft | 22 kts | 288° |
| 2026-05-07 09:43 | 52.30301 | 4.74135 | -13 ft | 2 kts | 253° |
| 2026-05-07 09:43 | 52.30319 | 4.74085 | -12 ft | 11 kts | 313° |
| 2026-05-07 09:43 | 52.30266 | 4.73964 | -12 ft | 16 kts | 216° |
| 2026-05-07 09:44 | 52.30188 | 4.73840 | -11 ft | 15 kts | 260° |
| 2026-05-07 09:44 | 52.30239 | 4.73738 | -9 ft | 6 kts | 359° |
| 2026-05-07 09:44 | 52.30246 | 4.73738 | -9 ft | 0 kts | 1° |
| 2026-05-07 09:45 | 52.30249 | 4.73738 | -9 ft | 2 kts | 1° |
| 2026-05-07 09:45 | 52.30422 | 4.73752 | -9 ft | 59 kts | 4° |
| 2026-05-07 09:45 | 52.31059 | 4.73815 | -6 ft | 123 kts | 5° |
| 2026-05-07 09:45 | 52.32097 | 4.73911 | 93 ft | 164 kts | 4° |
| 2026-05-07 09:46 | 52.33196 | 4.74034 | 804 ft | 161 kts | 359° |
| 2026-05-07 09:46 | 52.34293 | 4.73594 | 1415 ft | 168 kts | 342° |
| 2026-05-07 09:46 | 52.35377 | 4.72960 | 1976 ft | 172 kts | 343° |
| 2026-05-07 09:46 | 52.36572 | 4.72293 | 2335 ft | 186 kts | 343° |
| 2026-05-07 09:47 | 52.37832 | 4.71607 | 2711 ft | 199 kts | 344° |
| 2026-05-07 09:47 | 52.39196 | 4.70875 | 3077 ft | 215 kts | 343° |
| 2026-05-07 09:47 | 52.40664 | 4.70093 | 3461 ft | 230 kts | 344° |
| 2026-05-07 09:47 | 52.42226 | 4.69237 | 3936 ft | 243 kts | 339° |
| 2026-05-07 09:48 | 52.43746 | 4.67856 | 4469 ft | 256 kts | 327° |
| 2026-05-07 09:48 | 52.45205 | 4.66146 | 5082 ft | 262 kts | 326° |
| 2026-05-07 09:48 | 52.46711 | 4.64443 | 5796 ft | 266 kts | 327° |
| 2026-05-07 09:48 | 52.48278 | 4.62797 | 6546 ft | 268 kts | 329° |
| 2026-05-07 09:49 | 52.49870 | 4.61189 | 7246 ft | 272 kts | 329° |
| 2026-05-07 09:49 | 52.51491 | 4.59570 | 7956 ft | 276 kts | 329° |
| 2026-05-07 09:49 | 52.53115 | 4.57945 | 8643 ft | 279 kts | 329° |
| 2026-05-07 09:49 | 52.54780 | 4.56275 | 9392 ft | 283 kts | 329° |
| 2026-05-07 09:50 | 52.56455 | 4.54549 | 10150 ft | 285 kts | 325° |
| 2026-05-07 09:50 | 52.57991 | 4.52452 | 10692 ft | 297 kts | 316° |
| 2026-05-07 09:50 | 52.59453 | 4.49992 | 11133 ft | 312 kts | 314° |
| 2026-05-07 09:50 | 52.60990 | 4.47318 | 11566 ft | 327 kts | 314° |
| 2026-05-07 09:51 | 52.62583 | 4.44630 | 12138 ft | 337 kts | 315° |
| 2026-05-07 09:51 | 52.64260 | 4.41883 | 12895 ft | 341 kts | 316° |
| 2026-05-07 09:51 | 52.65944 | 4.39171 | 13633 ft | 345 kts | 316° |
| 2026-05-07 09:51 | 52.67663 | 4.36424 | 14457 ft | 348 kts | 316° |
| 2026-05-07 09:52 | 52.69418 | 4.33623 | 15228 ft | 352 kts | 316° |
| 2026-05-07 09:52 | 52.71182 | 4.30804 | 15988 ft | 357 kts | 316° |
| 2026-05-07 09:52 | 52.72963 | 4.27950 | 16731 ft | 361 kts | 316° |
| 2026-05-07 09:52 | 52.74745 | 4.25089 | 17433 ft | 365 kts | 316° |
| 2026-05-07 09:53 | 52.76574 | 4.22147 | 18156 ft | 370 kts | 315° |
| 2026-05-07 09:53 | 52.78429 | 4.19158 | 18885 ft | 374 kts | 316° |
| 2026-05-07 09:53 | 52.80301 | 4.16135 | 19537 ft | 379 kts | 316° |
| 2026-05-07 09:53 | 52.82167 | 4.13120 | 20197 ft | 382 kts | 316° |
| 2026-05-07 09:54 | 52.84061 | 4.10056 | 20857 ft | 386 kts | 316° |
| 2026-05-07 09:54 | 52.85990 | 4.06933 | 21472 ft | 390 kts | 316° |
| 2026-05-07 09:54 | 52.87917 | 4.03807 | 22075 ft | 394 kts | 316° |
| 2026-05-07 09:54 | 52.89899 | 4.00588 | 22668 ft | 397 kts | 316° |
| 2026-05-07 09:55 | 52.91857 | 3.97405 | 23229 ft | 401 kts | 316° |
| 2026-05-07 09:55 | 52.93851 | 3.94157 | 23775 ft | 405 kts | 316° |
| 2026-05-07 09:55 | 52.95873 | 3.90862 | 24088 ft | 412 kts | 316° |
| 2026-05-07 09:55 | 52.97908 | 3.87540 | 24089 ft | 409 kts | 316° |
| 2026-05-07 09:56 | 52.99944 | 3.84209 | 24313 ft | 416 kts | 316° |
| 2026-05-07 09:56 | 53.02000 | 3.80843 | 25085 ft | 413 kts | 316° |
| 2026-05-07 09:56 | 53.04026 | 3.77520 | 25593 ft | 417 kts | 316° |
| 2026-05-07 09:56 | 53.06110 | 3.74097 | 26166 ft | 419 kts | 316° |
| 2026-05-07 09:57 | 53.08158 | 3.70728 | 26672 ft | 422 kts | 316° |
| 2026-05-07 09:57 | 53.10258 | 3.67270 | 27167 ft | 425 kts | 317° |
| 2026-05-07 09:57 | 53.12374 | 3.63778 | 27668 ft | 428 kts | 317° |
| 2026-05-07 09:57 | 53.14458 | 3.60304 | 28096 ft | 432 kts | 315° |
| 2026-05-07 09:58 | 53.16414 | 3.56426 | 28582 ft | 436 kts | 309° |
| 2026-05-07 09:58 | 53.18164 | 3.52271 | 29013 ft | 440 kts | 305° |
| 2026-05-07 09:58 | 53.19829 | 3.47931 | 29487 ft | 443 kts | 304° |
| 2026-05-07 09:58 | 53.21453 | 3.43558 | 29949 ft | 445 kts | 304° |
| 2026-05-07 09:59 | 53.23095 | 3.39122 | 30370 ft | 448 kts | 304° |
| 2026-05-07 09:59 | 53.24746 | 3.34706 | 30792 ft | 451 kts | 304° |
| 2026-05-07 09:59 | 53.26438 | 3.30238 | 31340 ft | 449 kts | 304° |
| 2026-05-07 09:59 | 53.28131 | 3.25815 | 31928 ft | 447 kts | 304° |
| 2026-05-07 10:00 | 53.29808 | 3.21467 | 32420 ft | 446 kts | 304° |
| 2026-05-07 10:00 | 53.31491 | 3.17120 | 32878 ft | 446 kts | 305° |
| 2026-05-07 10:00 | 53.33186 | 3.12757 | 33312 ft | 446 kts | 305° |
| 2026-05-07 10:00 | 53.34863 | 3.08444 | 33758 ft | 446 kts | 305° |
| 2026-05-07 10:01 | 53.36559 | 3.04077 | 34161 ft | 446 kts | 305° |
| 2026-05-07 10:01 | 53.38260 | 2.99698 | 34574 ft | 446 kts | 305° |
| 2026-05-07 10:01 | 53.39946 | 2.95347 | 34931 ft | 446 kts | 305° |
| 2026-05-07 10:01 | 53.41618 | 2.91027 | 35228 ft | 446 kts | 305° |
| 2026-05-07 10:02 | 53.43305 | 2.86657 | 35499 ft | 445 kts | 304° |
| 2026-05-07 10:02 | 53.44973 | 2.82331 | 35737 ft | 444 kts | 304° |
| 2026-05-07 10:02 | 53.46643 | 2.77991 | 35978 ft | 443 kts | 304° |
| 2026-05-07 10:02 | 53.48324 | 2.73615 | 36223 ft | 442 kts | 304° |
| 2026-05-07 10:03 | 53.49984 | 2.69287 | 36423 ft | 442 kts | 304° |
| 2026-05-07 10:03 | 53.51622 | 2.65006 | 36701 ft | 441 kts | 303° |
| 2026-05-07 10:03 | 53.53288 | 2.60647 | 36989 ft | 440 kts | 303° |
| 2026-05-07 10:03 | 53.54930 | 2.56345 | 37269 ft | 440 kts | 303° |
| 2026-05-07 10:04 | 53.56596 | 2.51972 | 37545 ft | 440 kts | 303° |
| 2026-05-07 10:04 | 53.58245 | 2.47633 | 37794 ft | 440 kts | 303° |
| 2026-05-07 10:04 | 53.59872 | 2.43345 | 38043 ft | 439 kts | 303° |
| 2026-05-07 10:05 | 53.63165 | 2.34641 | 38107 ft | 441 kts | 302° |
| 2026-05-07 10:05 | 53.66437 | 2.25963 | 38110 ft | 439 kts | 302° |
| 2026-05-07 10:06 | 53.69734 | 2.17188 | 38097 ft | 439 kts | 302° |
| 2026-05-07 10:06 | 53.72966 | 2.08560 | 38108 ft | 439 kts | 302° |
| 2026-05-07 10:07 | 53.76208 | 1.99875 | 38104 ft | 439 kts | 302° |
| 2026-05-07 10:07 | 53.79452 | 1.91157 | 38104 ft | 439 kts | 302° |
| 2026-05-07 10:08 | 53.82684 | 1.82439 | 38106 ft | 439 kts | 302° |
| 2026-05-07 10:08 | 53.85923 | 1.73675 | 38109 ft | 439 kts | 302° |
| 2026-05-07 10:09 | 53.89150 | 1.64909 | 38103 ft | 439 kts | 302° |
| 2026-05-07 10:09 | 53.92359 | 1.56164 | 38092 ft | 438 kts | 302° |
| 2026-05-07 10:10 | 53.95590 | 1.47324 | 38095 ft | 439 kts | 302° |
| 2026-05-07 10:10 | 53.98810 | 1.38487 | 38094 ft | 438 kts | 302° |
| 2026-05-07 10:11 | 54.01991 | 1.29725 | 38090 ft | 438 kts | 301° |
| 2026-05-07 10:11 | 54.05181 | 1.20907 | 38075 ft | 438 kts | 301° |
| 2026-05-07 10:12 | 54.08373 | 1.12050 | 38082 ft | 439 kts | 301° |
| 2026-05-07 10:12 | 54.11557 | 1.03185 | 38073 ft | 438 kts | 301° |
| 2026-05-07 10:13 | 54.14717 | 0.94355 | 38072 ft | 438 kts | 301° |
| 2026-05-07 10:13 | 54.17886 | 0.85469 | 38077 ft | 439 kts | 301° |
| 2026-05-07 10:14 | 54.21034 | 0.76611 | 38073 ft | 438 kts | 301° |
| 2026-05-07 10:14 | 54.24180 | 0.67727 | 38074 ft | 437 kts | 301° |
| 2026-05-07 10:15 | 54.27326 | 0.58810 | 38073 ft | 436 kts | 301° |
| 2026-05-07 10:15 | 54.30461 | 0.49888 | 38071 ft | 437 kts | 301° |
| 2026-05-07 10:16 | 54.33575 | 0.40996 | 38069 ft | 437 kts | 301° |
| 2026-05-07 10:16 | 54.36681 | 0.32098 | 38071 ft | 438 kts | 300° |
| 2026-05-07 10:17 | 54.39793 | 0.23150 | 38065 ft | 437 kts | 300° |
| 2026-05-07 10:17 | 54.42904 | 0.14176 | 38074 ft | 437 kts | 300° |
| 2026-05-07 10:18 | 54.45988 | 0.05246 | 38071 ft | 436 kts | 300° |
| 2026-05-07 10:18 | 54.49070 | -0.03717 | 38075 ft | 435 kts | 300° |
| 2026-05-07 10:19 | 54.52153 | -0.12715 | 38061 ft | 434 kts | 299° |
| 2026-05-07 10:19 | 54.55204 | -0.21650 | 38073 ft | 435 kts | 300° |
| 2026-05-07 10:20 | 54.58269 | -0.30659 | 38064 ft | 435 kts | 300° |
| 2026-05-07 10:20 | 54.61324 | -0.39674 | 38056 ft | 435 kts | 299° |
| 2026-05-07 10:21 | 54.64368 | -0.48688 | 38061 ft | 436 kts | 299° |
| 2026-05-07 10:21 | 54.67395 | -0.57684 | 38058 ft | 435 kts | 299° |
| 2026-05-07 10:22 | 54.70434 | -0.66751 | 38046 ft | 435 kts | 298° |
| 2026-05-07 10:22 | 54.73440 | -0.75752 | 38051 ft | 434 kts | 298° |
| 2026-05-07 10:23 | 54.76445 | -0.84785 | 38045 ft | 433 kts | 298° |
| 2026-05-07 10:23 | 54.77923 | -0.89236 | 37911 ft | 429 kts | 298° |
| 2026-05-07 10:23 | 54.79410 | -0.93722 | 37558 ft | 423 kts | 298° |
| 2026-05-07 10:23 | 54.80860 | -0.98106 | 37078 ft | 421 kts | 298° |
| 2026-05-07 10:24 | 54.82299 | -1.02470 | 36544 ft | 421 kts | 298° |
| 2026-05-07 10:24 | 54.83752 | -1.06881 | 35983 ft | 422 kts | 299° |
| 2026-05-07 10:24 | 54.85213 | -1.11326 | 35342 ft | 425 kts | 299° |
| 2026-05-07 10:24 | 54.86658 | -1.15729 | 34758 ft | 425 kts | 299° |
| 2026-05-07 10:25 | 54.88115 | -1.20175 | 34254 ft | 421 kts | 299° |
| 2026-05-07 10:25 | 54.89546 | -1.24550 | 33778 ft | 417 kts | 299° |
| 2026-05-07 10:25 | 54.90966 | -1.28898 | 33314 ft | 413 kts | 298° |
| 2026-05-07 10:25 | 54.92376 | -1.33222 | 32854 ft | 413 kts | 298° |
| 2026-05-07 10:26 | 54.93811 | -1.37638 | 32373 ft | 432 kts | 298° |
| 2026-05-07 10:26 | 54.95317 | -1.42280 | 31865 ft | 444 kts | 298° |
| 2026-05-07 10:26 | 54.96826 | -1.46938 | 31339 ft | 441 kts | 298° |
| 2026-05-07 10:26 | 54.98324 | -1.51567 | 30835 ft | 435 kts | 299° |
| 2026-05-07 10:27 | 54.99781 | -1.56076 | 30334 ft | 430 kts | 298° |
| 2026-05-07 10:27 | 55.01237 | -1.60590 | 29832 ft | 424 kts | 298° |
| 2026-05-07 10:27 | 55.02678 | -1.65063 | 29335 ft | 420 kts | 298° |
| 2026-05-07 10:27 | 55.04084 | -1.69437 | 28853 ft | 417 kts | 297° |
| 2026-05-07 10:28 | 55.05511 | -1.73887 | 28348 ft | 415 kts | 297° |
| 2026-05-07 10:28 | 55.06898 | -1.78218 | 27859 ft | 412 kts | 297° |
| 2026-05-07 10:28 | 55.08291 | -1.82580 | 27362 ft | 409 kts | 297° |
| 2026-05-07 10:28 | 55.09668 | -1.86899 | 26873 ft | 406 kts | 297° |
| 2026-05-07 10:29 | 55.11028 | -1.91172 | 26384 ft | 403 kts | 297° |
| 2026-05-07 10:29 | 55.12388 | -1.95450 | 26009 ft | 399 kts | 297° |
| 2026-05-07 10:29 | 55.13749 | -1.99657 | 25995 ft | 399 kts | 298° |
| 2026-05-07 10:30 | 55.16523 | -2.08069 | 25988 ft | 402 kts | 298° |
| 2026-05-07 10:30 | 55.17934 | -2.12333 | 25921 ft | 403 kts | 298° |
| 2026-05-07 10:30 | 55.19340 | -2.16581 | 25651 ft | 402 kts | 298° |
| 2026-05-07 10:30 | 55.20726 | -2.20788 | 25392 ft | 397 kts | 298° |
| 2026-05-07 10:31 | 55.22097 | -2.24962 | 25128 ft | 397 kts | 298° |
| 2026-05-07 10:31 | 55.23463 | -2.29138 | 24864 ft | 395 kts | 297° |
| 2026-05-07 10:31 | 55.24774 | -2.33351 | 24599 ft | 393 kts | 296° |
| 2026-05-07 10:31 | 55.26015 | -2.37578 | 24339 ft | 392 kts | 295° |
| 2026-05-07 10:32 | 55.27235 | -2.41839 | 24080 ft | 391 kts | 295° |
| 2026-05-07 10:32 | 55.28447 | -2.46085 | 23793 ft | 390 kts | 295° |
| 2026-05-07 10:32 | 55.29654 | -2.50313 | 23350 ft | 389 kts | 295° |
| 2026-05-07 10:32 | 55.30864 | -2.54544 | 22871 ft | 384 kts | 295° |
| 2026-05-07 10:33 | 55.32045 | -2.58665 | 22399 ft | 380 kts | 295° |
| 2026-05-07 10:33 | 55.33232 | -2.62794 | 21926 ft | 376 kts | 295° |
| 2026-05-07 10:33 | 55.34394 | -2.66832 | 21463 ft | 373 kts | 294° |
| 2026-05-07 10:33 | 55.35557 | -2.70875 | 20993 ft | 370 kts | 294° |
| 2026-05-07 10:34 | 55.36703 | -2.74868 | 20529 ft | 367 kts | 294° |
| 2026-05-07 10:34 | 55.37858 | -2.78893 | 20059 ft | 364 kts | 294° |
| 2026-05-07 10:34 | 55.38988 | -2.82834 | 19594 ft | 362 kts | 294° |
| 2026-05-07 10:34 | 55.40105 | -2.86736 | 19126 ft | 360 kts | 294° |
| 2026-05-07 10:35 | 55.41231 | -2.90678 | 18655 ft | 357 kts | 294° |
| 2026-05-07 10:35 | 55.42339 | -2.94559 | 18199 ft | 355 kts | 294° |
| 2026-05-07 10:35 | 55.43435 | -2.98410 | 17745 ft | 353 kts | 294° |
| 2026-05-07 10:35 | 55.44533 | -3.02274 | 17286 ft | 350 kts | 294° |
| 2026-05-07 10:36 | 55.45615 | -3.06085 | 16830 ft | 348 kts | 294° |
| 2026-05-07 10:36 | 55.46687 | -3.09865 | 16380 ft | 346 kts | 294° |
| 2026-05-07 10:36 | 55.47754 | -3.13632 | 15924 ft | 344 kts | 294° |
| 2026-05-07 10:36 | 55.48814 | -3.17382 | 15471 ft | 341 kts | 294° |
| 2026-05-07 10:37 | 55.49861 | -3.21094 | 15025 ft | 339 kts | 294° |
| 2026-05-07 10:37 | 55.50898 | -3.24779 | 14583 ft | 338 kts | 294° |
| 2026-05-07 10:37 | 55.51938 | -3.28477 | 14134 ft | 337 kts | 294° |
| 2026-05-07 10:37 | 55.52972 | -3.32159 | 13691 ft | 335 kts | 294° |
| 2026-05-07 10:38 | 55.54008 | -3.35852 | 13249 ft | 333 kts | 294° |
| 2026-05-07 10:38 | 55.55027 | -3.39487 | 12808 ft | 330 kts | 294° |
| 2026-05-07 10:38 | 55.56041 | -3.43110 | 12370 ft | 327 kts | 294° |
| 2026-05-07 10:38 | 55.57029 | -3.46649 | 11947 ft | 325 kts | 294° |
| 2026-05-07 10:39 | 55.58030 | -3.50240 | 11509 ft | 323 kts | 294° |
| 2026-05-07 10:39 | 55.59006 | -3.53746 | 11086 ft | 320 kts | 294° |
| 2026-05-07 10:39 | 55.59985 | -3.57267 | 10663 ft | 317 kts | 294° |
| 2026-05-07 10:39 | 55.60961 | -3.60785 | 10238 ft | 315 kts | 294° |
| 2026-05-07 10:40 | 55.61913 | -3.64219 | 9966 ft | 308 kts | 293° |
| 2026-05-07 10:40 | 55.62825 | -3.67512 | 9844 ft | 295 kts | 292° |
| 2026-05-07 10:40 | 55.63726 | -3.70769 | 9416 ft | 294 kts | 292° |
| 2026-05-07 10:40 | 55.64625 | -3.74025 | 9033 ft | 292 kts | 292° |
| 2026-05-07 10:41 | 55.65505 | -3.77209 | 8659 ft | 289 kts | 292° |
| 2026-05-07 10:41 | 55.66389 | -3.80412 | 8286 ft | 286 kts | 292° |
| 2026-05-07 10:41 | 55.67240 | -3.83504 | 8015 ft | 280 kts | 292° |
| 2026-05-07 10:41 | 55.68080 | -3.86553 | 7971 ft | 266 kts | 292° |
| 2026-05-07 10:42 | 55.68872 | -3.89435 | 7972 ft | 260 kts | 292° |
| 2026-05-07 10:42 | 55.69673 | -3.92373 | 7872 ft | 263 kts | 291° |
| 2026-05-07 10:42 | 55.70488 | -3.95231 | 7528 ft | 263 kts | 298° |
| 2026-05-07 10:42 | 55.71761 | -3.97563 | 7112 ft | 272 kts | 324° |
| 2026-05-07 10:43 | 55.73489 | -3.98938 | 6756 ft | 274 kts | 338° |
| 2026-05-07 10:43 | 55.75282 | -3.99964 | 6445 ft | 272 kts | 339° |
| 2026-05-07 10:43 | 55.77080 | -4.00961 | 6136 ft | 269 kts | 339° |
| 2026-05-07 10:43 | 55.78856 | -4.01948 | 5793 ft | 265 kts | 339° |
| 2026-05-07 10:44 | 55.80585 | -4.02901 | 5534 ft | 258 kts | 339° |
| 2026-05-07 10:44 | 55.82283 | -4.03831 | 5196 ft | 252 kts | 339° |
| 2026-05-07 10:44 | 55.83935 | -4.04734 | 4891 ft | 244 kts | 339° |
| 2026-05-07 10:44 | 55.85544 | -4.05614 | 4577 ft | 239 kts | 339° |
| 2026-05-07 10:45 | 55.87125 | -4.06465 | 4291 ft | 232 kts | 339° |
| 2026-05-07 10:45 | 55.88639 | -4.07273 | 3982 ft | 226 kts | 339° |
| 2026-05-07 10:45 | 55.90131 | -4.08075 | 3671 ft | 221 kts | 339° |
| 2026-05-07 10:45 | 55.91581 | -4.08856 | 3465 ft | 211 kts | 340° |
| 2026-05-07 10:46 | 55.92932 | -4.09578 | 3486 ft | 195 kts | 339° |
| 2026-05-07 10:46 | 55.94188 | -4.10310 | 3469 ft | 186 kts | 327° |
| 2026-05-07 10:46 | 55.95095 | -4.11825 | 3481 ft | 174 kts | 290° |
| 2026-05-07 10:46 | 55.95524 | -4.13830 | 3475 ft | 171 kts | 282° |
| 2026-05-07 10:47 | 55.95934 | -4.15803 | 3473 ft | 171 kts | 284° |
| 2026-05-07 10:47 | 55.96343 | -4.17792 | 3468 ft | 169 kts | 276° |
| 2026-05-07 10:47 | 55.96374 | -4.19848 | 3463 ft | 164 kts | 258° |
| 2026-05-07 10:47 | 55.96263 | -4.21849 | 3213 ft | 164 kts | 259° |
| 2026-05-07 10:48 | 55.96162 | -4.23845 | 2875 ft | 158 kts | 258° |
| 2026-05-07 10:48 | 55.96048 | -4.25755 | 2481 ft | 151 kts | 253° |
| 2026-05-07 10:48 | 55.95608 | -4.27287 | 2267 ft | 134 kts | 226° |
| 2026-05-07 10:48 | 55.95031 | -4.28530 | 2181 ft | 130 kts | 226° |
| 2026-05-07 10:49 | 55.94426 | -4.29761 | 1944 ft | 129 kts | 223° |
| 2026-05-07 10:49 | 55.93814 | -4.30917 | 1784 ft | 129 kts | 222° |
| 2026-05-07 10:49 | 55.93197 | -4.32090 | 1590 ft | 129 kts | 222° |
| 2026-05-07 10:49 | 55.92583 | -4.33238 | 1421 ft | 129 kts | 222° |
| 2026-05-07 10:50 | 55.91958 | -4.34412 | 1241 ft | 129 kts | 223° |
| 2026-05-07 10:50 | 55.91338 | -4.35578 | 1055 ft | 130 kts | 222° |
| 2026-05-07 10:50 | 55.90718 | -4.36735 | 890 ft | 130 kts | 223° |
| 2026-05-07 10:50 | 55.90097 | -4.37902 | 708 ft | 130 kts | 223° |
| 2026-05-07 10:51 | 55.89471 | -4.39091 | 520 ft | 131 kts | 224° |
| 2026-05-07 10:51 | 55.88851 | -4.40273 | 322 ft | 130 kts | 221° |
| 2026-05-07 10:51 | 55.88217 | -4.41414 | 154 ft | 131 kts | 222° |
| 2026-05-07 10:51 | 55.87588 | -4.42596 | 24 ft | 131 kts | 223° |
| 2026-05-07 10:52 | 55.87104 | -4.43491 | 17 ft | 61 kts | 227° |
| 2026-05-07 10:52 | 55.86872 | -4.43924 | 19 ft | 50 kts | 228° |
| 2026-05-07 10:52 | 55.86675 | -4.44266 | 17 ft | 23 kts | 190° |
| 2026-05-07 10:52 | 55.86618 | -4.44187 | 18 ft | 5 kts | 100° |
| 2026-05-07 10:53 | 55.86616 | -4.44139 | 18 ft | 0 kts | 90° |
| 2026-05-07 10:53 | 55.86616 | -4.44064 | 19 ft | 13 kts | 90° |
| 2026-05-07 10:54 | 55.86643 | -4.43916 | 20 ft | 12 kts | 43° |
| 2026-05-07 10:54 | 55.86702 | -4.43807 | 20 ft | 12 kts | 47° |
| 2026-05-07 10:54 | 55.86737 | -4.43682 | 20 ft | 11 kts | 84° |
| 2026-05-07 10:54 | 55.86678 | -4.43592 | 20 ft | 12 kts | 165° |
| 2026-05-07 10:55 | 55.86611 | -4.43561 | 21 ft | 7 kts | 165° |
| 2026-05-07 10:55 | 55.86564 | -4.43536 | 22 ft | 6 kts | 164° |
| 2026-05-07 10:55 | 55.86525 | -4.43516 | 23 ft | 5 kts | 163° |
| 2026-05-07 10:55 | 55.86510 | -4.43508 | 23 ft | 0 kts | 164° |
| 2026-05-07 10:56 | 55.86488 | -4.43525 | 23 ft | 9 kts | 235° |
| 2026-05-07 10:56 | 55.86476 | -4.43596 | 21 ft | 4 kts | 255° |
| 2026-05-07 10:56 | 55.86474 | -4.43613 | 21 ft | 1 kts | 254° |
| 2026-05-07 10:56 | 55.86472 | -4.43623 | 21 ft | 0 kts | 253° |